Time;durP1;ratioP1;P1;durP2;ratioP2;P2;SDS_P1;SDS_P2;PMS_P1;PMS_P2;Temp;Humidity;BMP_temperature;BMP_pressure;BME280_temperature;BME280_humidity;BME280_pressure;Samples;Min_cycle;Max_cycle;Signal;HPM_P1;HPM_P2
2024/04/06 00:01:13;;;;;;;2.80;1.10;;;;;;;17.50;56.02;98889.59;103320;1301;544970;-81
2024/04/06 00:05:14;;;;;;;4.10;1.00;;;;;;;17.35;56.28;98908.08;103811;1295;546091;-79
2024/04/06 00:08:41;;;;;;;2.80;1.10;;;;;;;17.13;56.43;98915.11;103452;1297;545835;-79
2024/04/06 00:12:15;;;;;;;1.70;1.00;;;;;;;16.94;56.62;98916.08;103361;1296;544948;-80
2024/04/06 00:15:56;;;;;;;3.60;1.00;;;;;;;16.81;56.74;98921.45;103421;1294;544971;-80
2024/04/06 00:19:33;;;;;;;2.80;1.00;;;;;;;16.70;56.96;98919.74;103423;1292;544994;-78
2024/04/06 00:23:15;;;;;;;2.00;1.00;;;;;;;16.58;57.05;98924.78;103134;1296;546609;-79
2024/04/06 00:26:52;;;;;;;2.00;0.90;;;;;;;16.48;57.27;98930.94;103345;1292;545012;-80
2024/04/06 00:30:30;;;;;;;3.10;0.90;;;;;;;16.39;57.46;98942.15;103329;1295;545122;-80
2024/04/06 00:34:07;;;;;;;5.90;1.00;;;;;;;16.30;57.56;98938.36;103466;1295;546481;-79
2024/04/06 00:37:46;;;;;;;3.00;1.00;;;;;;;16.25;57.67;98932.07;103876;1294;545019;-79
2024/04/06 00:41:25;;;;;;;2.30;0.90;;;;;;;16.21;57.59;98936.61;103545;1295;545499;-79
2024/04/06 00:45:02;;;;;;;2.90;0.90;;;;;;;16.16;57.50;98943.75;103511;1295;544982;-82
2024/04/06 00:48:37;;;;;;;2.20;0.90;;;;;;;16.10;57.47;98949.02;104874;1299;545543;-81
2024/04/06 00:52:32;;;;;;;1.40;0.90;;;;;;;16.05;57.32;98959.20;104480;1295;548311;-83
2024/04/06 00:55:57;;;;;;;3.00;1.20;;;;;;;16.00;57.29;98962.94;103889;1295;546278;-82
2024/04/06 00:59:32;;;;;;;1.80;0.90;;;;;;;15.94;57.22;98965.39;104251;1295;544953;-83
2024/04/06 01:03:14;;;;;;;1.90;0.90;;;;;;;15.88;57.28;98968.16;104133;1299;545117;-83
2024/04/06 01:06:51;;;;;;;2.30;0.70;;;;;;;15.81;57.18;98970.29;104256;1295;546489;-82
2024/04/06 01:10:29;;;;;;;2.50;1.00;;;;;;;15.75;57.11;98975.70;104232;1294;544946;-83
2024/04/06 01:14:07;;;;;;;4.00;1.40;;;;;;;15.69;57.08;98978.34;104226;1292;545992;-83
2024/04/06 01:17:44;;;;;;;2.10;0.90;;;;;;;15.65;57.11;98980.95;104568;1291;544984;-84
2024/04/06 01:21:26;;;;;;;1.30;0.80;;;;;;;15.62;57.18;98991.41;103429;1293;545528;-77
2024/04/06 01:25:00;;;;;;;2.60;1.00;;;;;;;15.60;56.95;98991.00;103114;1296;544994;-77
2024/04/06 01:28:41;;;;;;;3.30;1.00;;;;;;;15.58;57.15;98997.55;103215;1295;545042;-78
2024/04/06 01:32:15;;;;;;;1.30;0.90;;;;;;;15.55;57.10;99000.79;103260;1296;545711;-77
2024/04/06 01:35:53;;;;;;;2.50;0.80;;;;;;;15.54;57.05;99007.09;103474;1292;544950;-79
2024/04/06 01:39:30;;;;;;;1.20;0.90;;;;;;;15.52;57.00;99004.38;104605;1300;544981;-88
2024/04/06 01:43:11;;;;;;;1.30;0.80;;;;;;;15.50;57.04;99006.13;103647;1289;545057;-78
2024/04/06 01:46:52;;;;;;;2.10;0.90;;;;;;;15.49;57.05;99012.42;103356;1292;545612;-78
2024/04/06 01:50:27;;;;;;;3.90;1.00;;;;;;;15.48;57.10;99021.23;103340;1295;545029;-79
2024/04/06 01:54:05;;;;;;;1.60;1.10;;;;;;;15.46;57.16;99022.08;103290;1308;544993;-79
2024/04/06 01:57:44;;;;;;;3.10;1.50;;;;;;;15.45;57.38;99026.22;103201;1299;545126;-79
2024/04/06 02:01:18;;;;;;;3.20;1.50;;;;;;;15.44;57.40;99031.10;103587;1293;544995;-80
2024/04/06 02:05:00;;;;;;;4.90;1.40;;;;;;;15.39;57.68;99029.48;103978;1293;545036;-85
2024/04/06 02:08:38;;;;;;;7.60;2.30;;;;;;;15.34;57.79;99022.59;104626;1292;545100;-85
2024/04/06 02:12:16;;;;;;;5.70;1.60;;;;;;;15.27;57.96;99020.23;104570;1295;545008;-85
2024/04/06 02:15:54;;;;;;;2.90;1.40;;;;;;;15.20;57.87;99022.06;104653;1292;545001;-85
2024/04/06 02:19:29;;;;;;;3.20;1.40;;;;;;;15.12;58.05;99024.22;104525;1294;544979;-86
2024/04/06 02:23:09;;;;;;;2.30;1.20;;;;;;;15.04;58.04;99028.52;104784;1295;545077;-88
2024/04/06 02:26:52;;;;;;;3.60;1.00;;;;;;;14.97;58.04;99036.14;104272;1295;545018;-86
2024/04/06 02:30:31;;;;;;;4.00;1.10;;;;;;;14.93;58.17;99032.90;104676;1292;545132;-86
2024/04/06 02:34:13;;;;;;;3.40;1.50;;;;;;;14.89;58.25;99036.20;104693;1295;549221;-80
2024/04/06 02:37:47;;;;;;;4.30;1.10;;;;;;;14.85;58.44;99044.59;105092;1294;544987;-88
2024/04/06 02:41:24;;;;;;;3.70;1.50;;;;;;;14.82;58.37;99042.17;104670;1295;545013;-84
2024/04/06 02:45:03;;;;;;;3.40;1.50;;;;;;;14.79;58.49;99054.44;104808;1295;545901;-82
2024/04/06 02:48:37;;;;;;;3.40;1.60;;;;;;;14.74;58.59;99061.85;103901;1295;545047;-81
2024/04/06 02:52:21;;;;;;;2.20;1.60;;;;;;;14.69;58.65;99063.48;103628;1297;545001;-80
2024/04/06 02:55:57;;;;;;;2.70;1.90;;;;;;;14.65;58.92;99062.00;103347;1294;545050;-80
2024/04/06 02:59:33;;;;;;;2.80;1.70;;;;;;;14.60;58.90;99059.55;103478;1295;546439;-80
2024/04/06 03:03:13;;;;;;;3.70;2.00;;;;;;;14.54;59.19;99070.21;103412;1296;544930;-78
2024/04/06 03:06:56;;;;;;;3.00;1.70;;;;;;;14.50;59.27;99071.92;104084;1296;544784;-82
2024/04/06 03:10:31;;;;;;;3.40;1.60;;;;;;;14.46;59.37;99066.86;104114;1297;546349;-83
2024/04/06 03:14:12;;;;;;;4.60;1.70;;;;;;;14.43;59.40;99076.65;103528;1292;545384;-78
2024/04/06 03:17:48;;;;;;;3.30;1.40;;;;;;;14.39;59.55;99077.59;103646;1299;545011;-81
2024/04/06 03:21:28;;;;;;;2.30;1.60;;;;;;;14.35;59.58;99080.02;103579;1298;545003;-79
2024/04/06 03:25:08;;;;;;;3.50;1.80;;;;;;;14.31;59.74;99073.58;103476;1295;545694;-78
2024/04/06 03:28:51;;;;;;;4.20;2.00;;;;;;;14.26;59.73;99071.45;103600;1292;545180;-79
2024/04/06 03:32:25;;;;;;;4.40;2.00;;;;;;;14.21;59.85;99073.74;103410;1298;544926;-79
2024/04/06 03:36:06;;;;;;;3.30;2.30;;;;;;;14.17;59.99;99077.59;103584;1298;545462;-78
2024/04/06 03:39:44;;;;;;;3.40;2.50;;;;;;;14.14;60.07;99078.10;103222;1292;544988;-78
2024/04/06 03:43:26;;;;;;;7.80;2.60;;;;;;;14.10;60.13;99078.39;104101;1295;549048;-83
2024/04/06 03:46:59;;;;;;;4.90;2.40;;;;;;;14.06;60.21;99078.09;104391;1289;544978;-81
2024/04/06 03:50:37;;;;;;;3.50;2.20;;;;;;;14.04;60.42;99079.10;104145;1299;545610;-81
2024/04/06 03:54:15;;;;;;;3.10;2.10;;;;;;;14.02;60.57;99074.15;104295;1292;544938;-82
2024/04/06 03:57:56;;;;;;;4.70;1.90;;;;;;;14.00;60.73;99073.39;103963;1295;544986;-83
2024/04/06 04:01:31;;;;;;;6.60;2.30;;;;;;;13.99;60.59;99073.80;104136;1292;544977;-82
2024/04/06 04:05:08;;;;;;;4.90;1.90;;;;;;;13.97;60.89;99081.34;104335;1294;545085;-83
2024/04/06 04:08:50;;;;;;;3.70;2.00;;;;;;;13.94;61.04;99075.17;104400;1296;545225;-84
2024/04/06 04:12:29;;;;;;;4.90;1.90;;;;;;;13.92;61.14;99086.50;103960;1293;545085;-82
2024/04/06 04:16:08;;;;;;;4.80;2.60;;;;;;;13.89;61.28;99090.38;103927;1293;546774;-80
2024/04/06 04:19:49;;;;;;;7.30;2.90;;;;;;;13.87;61.28;99082.59;104049;1298;545698;-77
2024/04/06 04:23:19;;;;;;;5.60;3.00;;;;;;;13.83;61.48;99089.72;104855;1286;544958;-83
2024/04/06 04:27:03;;;;;;;3.90;2.60;;;;;;;13.79;61.64;99087.56;105809;1293;544783;-85
2024/04/06 04:41:14;;;;;;;9.90;6.50;;;;;;;13.96;61.69;99097.52;105552;1285;553824;-82
2024/04/06 04:44:07;;;;;;;12.70;6.00;;;;;;;14.05;61.95;99107.20;104681;1294;545391;-83
2024/04/06 04:48:01;;;;;;;8.20;5.20;;;;;;;14.03;62.11;99108.53;104278;1297;549847;-84
2024/04/06 04:51:20;;;;;;;14.10;5.40;;;;;;;14.00;62.16;99117.23;103857;1295;546216;-78
2024/04/06 04:55:00;;;;;;;9.50;5.30;;;;;;;13.99;62.49;99114.78;103287;1295;544915;-78
2024/04/06 04:58:34;;;;;;;10.30;5.80;;;;;;;14.00;62.63;99120.44;103363;1296;544908;-79
2024/04/06 05:02:10;;;;;;;7.90;5.10;;;;;;;14.04;62.81;99129.70;104016;1292;545049;-78
2024/04/06 05:05:56;;;;;;;9.40;5.30;;;;;;;14.11;63.03;99132.06;103991;1292;546008;-80
2024/04/06 05:10:05;;;;;;;9.30;5.30;;;;;;;14.17;63.15;99133.80;103416;1297;549225;-81
2024/04/06 05:13:34;;;;;;;7.80;4.90;;;;;;;14.22;63.20;99134.00;103619;1309;545683;-77
2024/04/06 05:17:39;;;;;;;14.30;5.40;;;;;;;14.27;63.33;99132.08;103541;1295;544722;-79
2024/04/06 05:21:43;;;;;;;13.50;6.00;;;;;;;14.33;63.37;99121.21;103517;1297;553343;-79
2024/04/06 05:24:52;;;;;;;12.60;5.90;;;;;;;14.34;63.57;99130.16;103654;1296;545145;-80
2024/04/06 05:28:43;;;;;;;13.20;5.70;;;;;;;14.39;63.47;99144.48;103970;1295;546212;-83
2024/04/06 06:10:21;;;;;;;9.90;3.80;;;;;;;16.84;63.25;99139.52;106158;1291;556749;-88
2024/04/06 06:13:09;;;;;;;6.10;3.30;;;;;;;17.29;63.17;99145.17;105838;1292;545482;-86
2024/04/06 06:16:49;;;;;;;6.80;3.40;;;;;;;17.53;62.98;99140.80;105378;1295;546085;-86
2024/04/06 06:20:38;;;;;;;6.00;4.00;;;;;;;17.65;62.69;99143.89;105366;1292;544741;-86
2024/04/06 06:34:34;;;;;;;14.20;4.30;;;;;;;18.36;62.36;99147.88;105649;1291;555354;-82
2024/04/06 06:37:22;;;;;;;14.30;5.60;;;;;;;18.80;62.00;99140.91;104992;1294;545084;-82
2024/04/06 06:41:05;;;;;;;12.40;7.40;;;;;;;18.80;61.79;99141.77;104810;1288;545526;-80
2024/04/06 06:44:45;;;;;;;13.00;8.00;;;;;;;18.82;61.90;99144.45;104927;1292;545116;-84
2024/04/06 06:48:36;;;;;;;8.10;5.50;;;;;;;18.83;61.74;99155.05;105149;1292;545905;-81
2024/04/06 06:52:06;;;;;;;6.10;3.80;;;;;;;18.91;61.69;99171.29;104928;1295;545649;-82
2024/04/06 06:55:43;;;;;;;5.00;2.70;;;;;;;19.02;61.58;99167.35;103397;1295;545529;-79
2024/04/06 06:59:18;;;;;;;6.10;2.60;;;;;;;19.17;61.64;99163.56;104381;1291;545471;-78
2024/04/06 07:03:05;;;;;;;6.20;2.50;;;;;;;19.35;61.40;99161.94;103503;1300;544791;-81
2024/04/06 07:06:44;;;;;;;6.60;3.10;;;;;;;19.55;61.27;99153.27;103842;1294;545055;-81
2024/04/06 07:10:40;;;;;;;9.50;2.60;;;;;;;19.79;61.21;99155.23;103361;1299;546768;-81
2024/04/06 07:14:11;;;;;;;9.50;3.40;;;;;;;20.09;61.06;99160.42;103945;1295;545106;-80
2024/04/06 07:17:45;;;;;;;7.80;4.40;;;;;;;20.29;60.76;99161.38;103709;1292;545160;-77
2024/04/06 07:21:20;;;;;;;7.90;4.10;;;;;;;20.55;60.58;99164.12;103493;1299;545033;-76
2024/04/06 07:35:28;;;;;;;8.50;3.10;;;;;;;21.48;60.59;99163.73;104565;1285;554207;-79
2024/04/06 07:38:27;;;;;;;5.90;3.10;;;;;;;22.12;60.11;99165.50;103201;1294;545449;-77
2024/04/06 07:41:55;;;;;;;6.20;2.60;;;;;;;22.25;59.81;99162.95;103428;1292;544747;-78
2024/04/06 07:45:35;;;;;;;10.40;2.10;;;;;;;22.45;59.32;99163.41;103271;1295;545072;-79
2024/04/06 07:49:19;;;;;;;8.00;1.90;;;;;;;22.56;58.89;99160.48;103789;1289;545412;-80
2024/04/06 07:52:55;;;;;;;5.10;1.70;;;;;;;22.68;58.14;99157.66;103629;1295;544947;-78
2024/04/06 07:56:37;;;;;;;1.90;1.20;;;;;;;22.74;57.56;99155.43;103717;1294;544885;-79
2024/04/06 08:00:14;;;;;;;4.40;1.90;;;;;;;22.80;57.31;99159.98;103771;1298;545959;-79
2024/04/06 08:03:55;;;;;;;5.60;1.50;;;;;;;23.07;57.20;99154.49;103443;1294;546026;-78
2024/04/06 08:07:34;;;;;;;4.00;1.20;;;;;;;23.34;56.54;99155.02;103538;1298;545226;-78
2024/04/06 08:11:28;;;;;;;2.70;1.60;;;;;;;23.43;56.69;99160.07;103347;1296;549049;-84
2024/04/06 08:14:52;;;;;;;4.20;1.30;;;;;;;23.30;55.98;99168.23;103491;1296;544985;-78
2024/04/06 08:18:38;;;;;;;5.80;1.60;;;;;;;23.32;55.76;99173.72;103747;1291;545459;-81
2024/04/06 08:22:10;;;;;;;3.00;1.10;;;;;;;23.30;55.31;99176.30;103452;1298;545594;-80
2024/04/06 08:25:58;;;;;;;3.50;0.90;;;;;;;23.16;55.02;99180.30;103615;1295;549037;-80
2024/04/06 08:29:32;;;;;;;4.70;1.20;;;;;;;23.00;54.71;99176.34;103288;1296;545160;-79
2024/04/06 08:33:08;;;;;;;1.30;0.80;;;;;;;22.84;54.59;99180.51;103398;1297;545034;-79
2024/04/06 08:47:19;;;;;;;4.50;1.20;;;;;;;22.95;54.70;99174.73;104869;1299;553815;-78
2024/04/06 08:50:15;;;;;;;7.30;1.20;;;;;;;22.95;54.17;99176.18;103683;1295;545408;-80
2024/04/06 08:53:52;;;;;;;3.70;1.30;;;;;;;22.75;53.80;99180.52;106195;1289;544980;-86
2024/04/06 08:57:40;;;;;;;3.10;1.10;;;;;;;22.65;53.98;99185.98;105085;1295;545136;-86
2024/04/06 09:01:12;;;;;;;5.10;1.60;;;;;;;22.61;53.66;99181.50;104999;1295;544873;-86
2024/04/06 09:04:46;;;;;;;3.70;1.40;;;;;;;22.64;53.36;99184.27;104939;1295;544884;-84
2024/04/06 09:19:11;;;;;;;3.90;1.10;;;;;;;23.62;53.11;99169.52;107209;1284;563641;-83
2024/04/06 09:22:02;;;;;;;5.20;1.20;;;;;;;23.80;52.44;99170.30;105567;1292;545362;-78
2024/04/06 09:25:37;;;;;;;2.90;1.10;;;;;;;23.70;52.11;99169.02;104014;1298;544817;-78
2024/04/06 09:29:48;;;;;;;3.30;1.00;;;;;;;23.78;52.13;99166.68;103463;1292;549374;-78
2024/04/06 09:33:00;;;;;;;1.90;1.00;;;;;;;23.99;51.83;99169.62;103681;1299;545096;-79
2024/04/06 09:36:56;;;;;;;2.70;1.10;;;;;;;24.17;51.71;99166.23;103949;1313;547409;-78
2024/04/06 09:40:25;;;;;;;3.10;1.20;;;;;;;24.25;51.53;99162.63;103553;1296;547989;-80
2024/04/06 09:43:58;;;;;;;0.90;0.80;;;;;;;24.38;51.19;99160.71;103719;1292;545663;-79
2024/04/06 09:47:38;;;;;;;2.40;1.00;;;;;;;24.57;51.05;99150.54;103568;1295;545633;-79
2024/04/06 09:51:21;;;;;;;1.20;0.80;;;;;;;24.48;50.59;99153.81;103035;1298;545112;-79
2024/04/06 09:54:58;;;;;;;3.80;0.80;;;;;;;24.49;50.65;99155.67;103446;1298;545074;-80
2024/04/06 09:58:35;;;;;;;4.30;0.90;;;;;;;24.51;50.57;99152.79;103463;1292;545979;-77
2024/04/06 10:02:23;;;;;;;2.20;1.20;;;;;;;24.59;50.26;99146.09;103627;1293;544985;-76
2024/04/06 10:05:51;;;;;;;2.80;0.80;;;;;;;24.72;49.86;99150.06;103373;1296;545127;-77
2024/04/06 10:09:37;;;;;;;3.70;1.10;;;;;;;24.74;49.88;99149.48;103735;1299;545006;-77
2024/04/06 10:13:09;;;;;;;1.10;0.80;;;;;;;24.75;49.51;99145.77;103456;1295;545529;-77
2024/04/06 10:17:16;;;;;;;2.00;1.10;;;;;;;24.83;49.43;99146.85;103422;1295;553205;-78
2024/04/06 10:20:28;;;;;;;1.20;0.60;;;;;;;24.62;49.18;99150.87;103400;1293;544922;-78
2024/04/06 10:24:13;;;;;;;1.10;0.70;;;;;;;24.58;49.07;99144.98;103662;1295;544968;-79
2024/04/06 10:28:10;;;;;;;2.90;1.10;;;;;;;24.64;48.83;99143.24;103591;1295;550693;-81
2024/04/06 10:31:43;;;;;;;4.30;1.20;;;;;;;24.68;48.92;99135.69;104096;1293;548992;-82
2024/04/06 10:35:01;;;;;;;1.50;1.10;;;;;;;24.65;48.70;99134.12;104146;1295;545315;-83
2024/04/06 10:38:44;;;;;;;2.90;1.10;;;;;;;24.52;48.34;99136.27;104433;1295;544965;-82
2024/04/06 10:42:26;;;;;;;4.20;1.30;;;;;;;24.49;48.54;99131.05;104024;1295;548019;-82
2024/04/06 10:46:22;;;;;;;2.40;0.80;;;;;;;24.58;48.53;99130.98;103664;1294;559153;-78
2024/04/06 10:49:38;;;;;;;1.50;1.10;;;;;;;24.54;48.26;99130.41;103789;1292;544770;-81
2024/04/06 11:03:40;;;;;;;2.20;0.70;;;;;;;25.17;47.89;99125.11;104238;1285;554523;-79
2024/04/06 11:06:30;;;;;;;2.60;0.70;;;;;;;25.61;47.31;99130.17;103417;1296;545238;-77
2024/04/06 11:10:10;;;;;;;2.10;0.90;;;;;;;25.63;47.15;99128.67;103260;1298;545025;-78
2024/04/06 11:13:55;;;;;;;2.00;0.90;;;;;;;25.75;46.93;99136.63;103475;1298;545667;-79
2024/04/06 11:17:37;;;;;;;2.10;0.80;;;;;;;25.92;46.50;99139.40;103504;1292;546360;-79
2024/04/06 11:21:14;;;;;;;1.70;0.80;;;;;;;25.59;46.08;99137.27;103291;1294;545015;-78
2024/04/06 11:24:53;;;;;;;2.20;0.90;;;;;;;25.66;46.56;99139.75;103352;1293;544972;-78
2024/04/06 11:28:30;;;;;;;2.60;1.00;;;;;;;25.85;46.39;99134.63;103717;1293;545140;-78
2024/04/06 11:32:08;;;;;;;1.70;0.80;;;;;;;25.99;46.03;99142.69;103384;1292;545210;-78
2024/04/06 11:35:44;;;;;;;2.00;0.90;;;;;;;26.16;45.80;99144.35;104051;1298;545047;-79
2024/04/06 11:39:26;;;;;;;3.90;2.20;;;;;;;26.25;45.56;99138.18;103511;1298;545447;-77
2024/04/06 11:43:03;;;;;;;5.30;1.70;;;;;;;25.89;45.45;99143.19;103060;1295;544808;-75
2024/04/06 11:46:45;;;;;;;3.00;0.90;;;;;;;25.39;45.07;99125.64;103195;1293;545507;-75
2024/04/06 11:50:22;;;;;;;3.70;1.00;;;;;;;24.99;45.59;99127.40;103232;1295;544985;-75
2024/04/06 11:54:00;;;;;;;2.40;0.80;;;;;;;25.31;45.61;99124.93;103371;1292;545090;-77
2024/04/06 11:57:38;;;;;;;6.50;1.50;;;;;;;25.53;45.55;99123.74;103086;1296;544999;-79
2024/04/06 12:01:17;;;;;;;3.50;1.40;;;;;;;25.31;44.94;99127.08;103473;1289;545007;-76
2024/04/06 12:04:53;;;;;;;4.50;2.00;;;;;;;24.96;45.42;99128.45;103397;1298;545398;-75
2024/04/06 12:08:31;;;;;;;3.50;1.70;;;;;;;24.83;45.56;99134.60;103104;1308;545352;-77
2024/04/06 12:12:08;;;;;;;3.20;1.60;;;;;;;24.65;45.07;99142.98;103160;1295;545932;-76
2024/04/06 12:15:50;;;;;;;3.60;1.10;;;;;;;24.19;45.15;99136.87;103347;1295;545351;-76
2024/04/06 12:19:27;;;;;;;3.00;1.10;;;;;;;23.79;45.16;99139.98;103157;1295;544985;-79
2024/04/06 12:23:03;;;;;;;2.70;1.20;;;;;;;23.40;45.55;99144.92;103671;1295;545095;-76
2024/04/06 12:26:47;;;;;;;1.40;1.10;;;;;;;23.35;45.54;99148.80;103432;1299;545546;-76
2024/04/06 12:30:22;;;;;;;2.10;1.00;;;;;;;23.15;45.67;99154.33;103251;1293;545636;-75
2024/04/06 12:34:04;;;;;;;2.10;1.10;;;;;;;22.94;45.72;99159.18;103097;1299;545825;-75
2024/04/06 12:37:39;;;;;;;1.00;0.60;;;;;;;23.05;45.68;99161.02;103160;1296;545064;-75
2024/04/06 12:41:21;;;;;;;3.40;1.10;;;;;;;22.87;45.72;99158.73;103001;1298;545606;-76
2024/04/06 12:44:59;;;;;;;2.20;1.10;;;;;;;22.73;45.81;99164.48;103145;1293;544937;-76
2024/04/06 12:48:34;;;;;;;2.70;1.20;;;;;;;22.54;46.02;99152.05;103363;1295;545057;-76
2024/04/06 12:52:16;;;;;;;3.00;1.30;;;;;;;22.62;46.34;99152.00;103105;1299;545218;-79
2024/04/06 12:55:55;;;;;;;3.30;1.50;;;;;;;22.79;46.29;99149.71;103163;1298;545018;-78
2024/04/06 12:59:32;;;;;;;1.40;1.10;;;;;;;23.00;46.65;99138.91;103076;1299;545606;-77
2024/04/06 13:03:07;;;;;;;4.40;1.20;;;;;;;23.32;46.53;99136.39;103268;1296;544959;-77
2024/04/06 13:06:46;;;;;;;2.00;1.00;;;;;;;23.69;46.78;99134.04;103252;1298;545113;-79
2024/04/06 13:10:28;;;;;;;2.30;0.90;;;;;;;23.82;46.03;99134.84;103098;1295;545544;-77
2024/04/06 13:14:05;;;;;;;3.40;1.30;;;;;;;23.65;45.95;99132.70;103712;1295;546057;-77
2024/04/06 13:17:43;;;;;;;1.80;0.80;;;;;;;23.36;46.13;99132.95;103366;1292;546022;-77
2024/04/06 13:21:21;;;;;;;4.40;0.70;;;;;;;23.51;46.22;99136.04;103158;1295;545026;-78
2024/04/06 13:24:57;;;;;;;1.00;0.80;;;;;;;23.77;46.22;99134.08;103096;1295;544777;-77
2024/04/06 13:28:37;;;;;;;3.30;0.90;;;;;;;23.87;45.75;99136.27;103049;1295;545595;-78
2024/04/06 13:32:18;;;;;;;1.80;0.90;;;;;;;23.91;45.84;99131.12;103047;1298;545046;-77
2024/04/06 13:36:19;;;;;;;5.00;1.20;;;;;;;23.98;45.75;99126.64;103055;1294;545869;-77
2024/04/06 13:40:00;;;;;;;1.40;1.00;;;;;;;23.69;45.58;99132.33;103574;1291;545217;-77
2024/04/06 13:43:42;;;;;;;0.90;0.70;;;;;;;23.48;45.83;99133.50;103518;1292;546310;-76
2024/04/06 13:47:17;;;;;;;2.30;1.00;;;;;;;23.50;45.58;99132.33;103492;1296;545904;-80
2024/04/06 13:50:59;;;;;;;1.40;0.80;;;;;;;23.28;45.85;99133.58;103393;1296;546602;-77
2024/04/06 13:54:37;;;;;;;2.20;0.90;;;;;;;23.24;45.77;99133.36;103236;1298;545121;-76
2024/04/06 13:58:34;;;;;;;1.60;0.80;;;;;;;23.11;46.07;99131.30;102996;1308;553337;-75
2024/04/06 14:01:53;;;;;;;1.90;0.90;;;;;;;22.96;45.90;99127.95;103263;1293;545054;-78
2024/04/06 14:05:29;;;;;;;1.60;1.10;;;;;;;22.76;45.77;99133.45;103317;1295;545646;-75
2024/04/06 14:09:14;;;;;;;2.00;1.20;;;;;;;22.69;46.25;99130.09;103180;1294;545524;-79
2024/04/06 14:12:47;;;;;;;12.20;1.30;;;;;;;22.84;46.20;99127.98;103329;1295;545601;-78
2024/04/06 14:16:29;;;;;;;2.20;1.10;;;;;;;22.79;45.88;99127.24;103269;1296;545874;-78
2024/04/06 14:20:25;;;;;;;4.60;1.70;;;;;;;22.68;46.01;99135.38;103335;1292;560992;-80
2024/04/06 14:23:44;;;;;;;5.60;1.10;;;;;;;22.71;46.30;99134.52;103465;1308;545729;-77
2024/04/06 14:27:21;;;;;;;2.00;1.30;;;;;;;22.84;46.36;99132.64;103142;1300;545972;-77
2024/04/06 14:31:01;;;;;;;2.40;0.80;;;;;;;22.96;46.30;99131.04;103219;1295;549213;-77
2024/04/06 14:34:37;;;;;;;1.70;0.70;;;;;;;22.99;46.59;99127.44;103432;1295;544944;-78
2024/04/06 14:38:15;;;;;;;5.40;1.70;;;;;;;23.10;46.74;99130.27;103287;1295;544923;-76
2024/04/06 14:41:54;;;;;;;3.70;2.10;;;;;;;23.20;46.35;99138.34;103407;1295;544880;-77
2024/04/06 14:56:21;;;;;;;4.50;0.90;;;;;;;23.65;46.44;99138.25;103951;1288;559231;-78
2024/04/06 14:59:11;;;;;;;2.30;1.20;;;;;;;23.99;46.51;99139.95;102960;1294;545039;-77
2024/04/06 15:02:47;;;;;;;3.40;1.00;;;;;;;23.89;46.38;99139.44;103274;1294;545606;-78
2024/04/06 15:06:27;;;;;;;3.20;1.10;;;;;;;23.86;46.24;99137.49;103267;1293;544971;-78
2024/04/06 15:10:08;;;;;;;0.80;0.80;;;;;;;23.79;46.38;99140.68;104191;1292;545383;-77
2024/04/06 15:13:44;;;;;;;1.90;0.80;;;;;;;23.82;46.31;99143.98;103780;1298;545865;-77
2024/04/06 15:17:28;;;;;;;2.80;1.20;;;;;;;23.82;46.21;99141.68;103816;1294;545897;-77
2024/04/06 15:21:05;;;;;;;2.30;1.10;;;;;;;23.76;46.21;99143.23;103346;1295;544990;-77
2024/04/06 15:24:44;;;;;;;3.20;1.20;;;;;;;23.76;46.45;99145.55;103296;1295;545784;-77
2024/04/06 15:28:21;;;;;;;2.30;0.90;;;;;;;23.89;46.92;99142.58;103608;1293;544892;-79
2024/04/06 15:31:57;;;;;;;2.70;0.80;;;;;;;23.94;46.28;99144.31;103339;1295;545610;-77
2024/04/06 15:35:36;;;;;;;2.10;1.00;;;;;;;23.90;46.70;99143.39;103822;1289;544952;-78
2024/04/06 15:39:25;;;;;;;1.20;0.90;;;;;;;23.96;46.42;99139.05;103741;1292;545677;-80
2024/04/06 15:42:56;;;;;;;4.20;1.40;;;;;;;23.98;46.83;99133.10;103408;1295;545713;-79
2024/04/06 15:46:38;;;;;;;2.80;1.00;;;;;;;24.03;46.54;99125.47;103311;1295;545820;-80
2024/04/06 15:50:13;;;;;;;2.80;1.20;;;;;;;24.02;46.39;99120.61;103530;1298;545473;-77
2024/04/06 15:53:53;;;;;;;2.60;1.20;;;;;;;23.93;46.16;99120.38;103343;1298;545882;-78
2024/04/06 15:57:33;;;;;;;2.10;1.30;;;;;;;23.76;46.27;99111.77;103279;1296;545105;-77
2024/04/06 16:39:17;;;;;;;3.90;2.60;;;;;;;24.36;47.78;99105.69;104762;1286;553802;-82
2024/04/06 16:42:05;;;;;;;4.00;2.60;;;;;;;24.21;47.55;99118.72;103557;1295;545107;-77
2024/04/06 16:45:49;;;;;;;5.30;2.10;;;;;;;23.93;47.43;99119.11;103671;1296;544986;-77
2024/04/06 16:49:29;;;;;;;4.00;1.70;;;;;;;23.64;47.85;99121.29;103691;1295;545496;-79
2024/04/06 16:53:13;;;;;;;5.20;3.40;;;;;;;23.40;48.23;99119.45;103179;1292;544807;-79
2024/04/06 16:56:50;;;;;;;5.20;1.90;;;;;;;23.13;48.23;99114.94;103445;1293;544997;-77
2024/04/06 17:00:28;;;;;;;4.20;2.10;;;;;;;22.91;48.24;99109.48;103079;1296;545735;-78
2024/04/06 17:14:34;;;;;;;5.00;2.50;;;;;;;22.56;48.36;99102.92;104145;1289;558708;-77
2024/04/06 17:17:24;;;;;;;4.30;2.90;;;;;;;22.29;48.75;99102.32;103069;1299;544993;-77
2024/04/06 17:21:00;;;;;;;4.90;2.90;;;;;;;22.06;48.87;99112.95;103160;1293;545084;-76
2024/04/06 17:24:42;;;;;;;8.20;3.40;;;;;;;21.80;49.11;99112.14;103327;1294;545026;-76
2024/04/06 17:28:18;;;;;;;8.50;5.20;;;;;;;21.56;49.24;99114.35;103444;1293;545422;-77
2024/04/06 17:32:00;;;;;;;6.80;4.90;;;;;;;21.28;49.54;99117.63;103168;1295;544993;-77
2024/04/06 17:35:39;;;;;;;6.70;4.10;;;;;;;21.05;49.61;99122.21;103447;1292;544946;-79
2024/04/06 17:49:45;;;;;;;6.60;4.10;;;;;;;20.78;50.22;99125.50;104221;1285;554488;-76
2024/04/06 17:52:34;;;;;;;17.60;13.90;;;;;;;20.54;50.29;99127.05;103063;1298;545430;-76
2024/04/06 18:34:38;;;;;;;9.10;5.60;;;;;;;19.60;52.20;99156.50;106809;1268;557366;-75
2024/04/06 18:37:24;;;;;;;7.60;5.70;;;;;;;19.37;52.56;99167.14;103293;1295;544914;-77
2024/04/06 18:41:02;;;;;;;9.10;5.40;;;;;;;19.16;52.91;99169.13;103552;1292;545085;-77
2024/04/06 18:44:40;;;;;;;9.30;6.00;;;;;;;18.99;53.54;99167.60;103090;1298;545233;-78
2024/04/06 18:48:19;;;;;;;9.80;7.70;;;;;;;18.82;53.53;99174.02;103268;1294;544999;-79
2024/04/06 18:51:53;;;;;;;9.90;7.20;;;;;;;18.65;53.62;99182.77;103245;1296;546041;-78
2024/04/06 18:55:35;;;;;;;12.40;8.80;;;;;;;18.49;53.92;99192.55;103701;1294;545668;-78
2024/04/06 18:59:32;;;;;;;11.90;7.90;;;;;;;18.37;54.13;99187.85;103168;1299;550500;-77
2024/04/06 19:02:51;;;;;;;13.60;8.50;;;;;;;18.23;54.25;99184.90;103131;1293;545605;-77
2024/04/06 19:06:28;;;;;;;16.50;9.80;;;;;;;18.12;54.49;99190.16;103347;1292;545788;-77
2024/04/06 19:10:06;;;;;;;13.00;9.30;;;;;;;18.00;54.71;99194.00;103544;1292;545012;-78
2024/04/06 19:13:43;;;;;;;16.30;9.90;;;;;;;17.89;54.93;99190.61;103611;1294;545025;-78
2024/04/06 19:17:21;;;;;;;15.30;9.50;;;;;;;17.80;55.26;99188.86;103384;1293;545448;-76
2024/04/06 19:21:00;;;;;;;13.10;10.40;;;;;;;17.71;55.40;99184.51;103149;1295;545102;-77
2024/04/06 19:24:35;;;;;;;15.70;11.20;;;;;;;17.60;55.65;99184.10;103342;1315;544985;-77
2024/04/06 19:28:15;;;;;;;18.30;13.80;;;;;;;17.52;55.92;99186.05;103392;1295;545042;-77
2024/04/06 19:32:16;;;;;;;23.90;16.00;;;;;;;17.45;56.12;99186.55;103387;1292;550923;-76
2024/04/06 19:35:33;;;;;;;22.60;14.40;;;;;;;17.34;56.14;99178.92;103279;1295;545054;-76
2024/04/06 19:39:15;;;;;;;24.90;16.00;;;;;;;17.25;56.58;99187.32;103268;1297;545046;-75
2024/04/06 19:42:53;;;;;;;26.90;17.40;;;;;;;17.15;56.83;99187.88;102998;1297;545189;-76
2024/04/06 19:46:34;;;;;;;20.60;14.20;;;;;;;17.07;56.84;99180.73;103083;1296;549419;-76
2024/04/06 19:50:08;;;;;;;19.50;12.60;;;;;;;16.99;57.13;99179.20;103602;1289;545841;-76
2024/04/06 19:53:46;;;;;;;14.60;10.90;;;;;;;16.91;57.34;99189.41;103238;1292;545652;-77
2024/04/06 19:57:23;;;;;;;14.50;10.30;;;;;;;16.83;57.50;99193.23;103633;1292;544957;-79
2024/04/06 20:00:59;;;;;;;12.90;9.50;;;;;;;16.75;57.75;99196.88;103226;1295;544921;-76
2024/04/06 20:04:41;;;;;;;15.30;9.90;;;;;;;16.68;57.86;99197.52;103711;1289;544859;-76